Time;durP1;ratioP1;P1;durP2;ratioP2;P2;SDS_P1;SDS_P2;PMS_P1;PMS_P2;Temp;Humidity;BMP_temperature;BMP_pressure;BME280_temperature;BME280_humidity;BME280_pressure;Samples;Min_cycle;Max_cycle;Signal;HPM_P1;HPM_P2
2021/05/19 00:02:07;;;;;;;41.10;28.35;;;8.40;99.90;;;;;;5094001;28;20043;-69
2021/05/19 00:04:33;;;;;;;46.00;29.45;;;8.40;99.90;;;;;;5093710;28;20465;-69
2021/05/19 00:06:59;;;;;;;48.70;30.98;;;8.30;99.90;;;;;;5093593;28;20036;-69
2021/05/19 00:09:24;;;;;;;50.58;31.70;;;8.30;99.90;;;;;;5093917;28;20024;-69
2021/05/19 00:11:50;;;;;;;47.78;32.35;;;8.20;99.90;;;;;;5093898;28;20473;-69
2021/05/19 00:14:18;;;;;;;56.47;34.92;;;8.30;99.90;;;;;;5092067;28;20073;-69
2021/05/19 00:16:45;;;;;;;52.83;35.25;;;8.30;99.90;;;;;;5093877;28;20487;-69
2021/05/19 00:19:11;;;;;;;60.60;36.55;;;8.20;99.90;;;;;;5093534;28;20035;-69
2021/05/19 00:21:37;;;;;;;61.85;36.65;;;8.20;99.90;;;;;;5093522;28;20389;-69
2021/05/19 00:24:04;;;;;;;59.40;36.72;;;8.20;99.90;;;;;;5093242;28;20116;-69
2021/05/19 00:26:29;;;;;;;61.20;36.42;;;8.20;99.90;;;;;;5093396;28;20020;-69
2021/05/19 00:28:56;;;;;;;60.42;38.00;;;8.20;99.90;;;;;;5093464;28;20027;-69
2021/05/19 00:31:24;;;;;;;59.38;37.38;;;8.20;99.90;;;;;;5093452;28;20089;-69
2021/05/19 00:33:50;;;;;;;61.60;38.08;;;8.30;99.90;;;;;;5097110;28;20366;-68
2021/05/19 00:36:15;;;;;;;57.67;36.17;;;8.20;99.90;;;;;;5097519;28;20028;-69
2021/05/19 00:38:41;;;;;;;58.03;37.80;;;8.10;99.90;;;;;;5097162;28;20032;-68
2021/05/19 00:41:08;;;;;;;57.60;37.15;;;8.10;99.90;;;;;;5097080;28;20081;-69
2021/05/19 00:43:34;;;;;;;60.33;38.47;;;8.00;99.90;;;;;;5097086;28;20034;-68
2021/05/19 00:46:00;;;;;;;59.70;39.20;;;8.00;99.90;;;;;;5096605;28;20441;-69
2021/05/19 00:48:25;;;;;;;62.85;41.45;;;8.00;99.90;;;;;;5097271;28;20051;-69
2021/05/19 00:50:51;;;;;;;66.47;42.90;;;8.00;99.90;;;;;;5097231;28;20370;-69
2021/05/19 00:53:16;;;;;;;70.20;44.90;;;7.90;99.90;;;;;;5096223;28;20028;-69
2021/05/19 00:55:42;;;;;;;74.57;43.60;;;7.80;99.90;;;;;;5097157;28;20419;-69
2021/05/19 00:58:07;;;;;;;72.05;44.75;;;7.80;99.90;;;;;;5097077;28;20461;-68
2021/05/19 01:00:35;;;;;;;85.35;47.95;;;7.70;99.90;;;;;;5096667;28;20020;-69
2021/05/19 01:03:01;;;;;;;79.63;47.42;;;7.70;99.90;;;;;;5097038;28;20020;-69
2021/05/19 01:05:34;;;;;;;79.63;49.22;;;7.80;99.90;;;;;;5096626;28;20146;-69
2021/05/19 01:10:46;;;;;;;79.97;46.50;;;7.90;99.90;;;;;;5096156;28;19904;-68
2021/05/19 01:13:12;;;;;;;83.55;48.67;;;8.00;99.90;;;;;;5096540;28;20377;-68
2021/05/19 01:15:37;;;;;;;87.05;49.67;;;7.90;99.90;;;;;;5096511;28;20102;-68
2021/05/19 01:18:05;;;;;;;81.78;50.78;;;7.80;99.90;;;;;;5095322;28;20377;-68
2021/05/19 01:20:31;;;;;;;86.60;50.00;;;7.90;99.90;;;;;;5096172;28;20032;-69
2021/05/19 01:22:57;;;;;;;86.65;49.88;;;7.80;99.90;;;;;;5096364;28;20036;-68
2021/05/19 01:25:23;;;;;;;92.38;52.92;;;7.80;99.90;;;;;;5095076;28;20024;-68
2021/05/19 01:27:54;;;;;;;97.85;53.78;;;7.70;99.90;;;;;;5096551;28;20350;-69
2021/05/19 01:30:21;;;;;;;95.25;53.05;;;7.70;99.90;;;;;;5096209;28;20024;-69
2021/05/19 01:32:46;;;;;;;98.20;53.50;;;7.70;99.90;;;;;;5096207;28;20047;-68
2021/05/19 01:35:13;;;;;;;103.85;55.20;;;7.60;99.90;;;;;;5096407;28;20110;-69
2021/05/19 01:37:40;;;;;;;102.38;54.60;;;7.50;99.90;;;;;;5096352;28;20020;-68
2021/05/19 01:40:06;;;;;;;98.72;54.63;;;7.50;99.90;;;;;;5096064;28;20020;-69
2021/05/19 01:42:32;;;;;;;103.43;54.85;;;7.50;99.90;;;;;;5096161;28;20062;-68
2021/05/19 01:44:57;;;;;;;95.95;53.33;;;7.40;99.90;;;;;;5095362;28;20385;-69
2021/05/19 01:47:47;;;;;;;92.53;53.38;;;7.50;99.90;;;;;;5095600;28;20053;-69
2021/05/19 01:50:23;;;;;;;93.80;53.60;;;7.40;99.90;;;;;;5096125;28;20016;-69
2021/05/19 01:52:52;;;;;;;98.95;55.10;;;7.40;99.90;;;;;;5095514;28;20465;-69
2021/05/19 01:55:18;;;;;;;98.40;53.95;;;7.30;99.90;;;;;;5094585;28;20434;-69
2021/05/19 01:57:46;;;;;;;93.38;53.20;;;7.30;99.90;;;;;;5094087;28;20023;-68
2021/05/19 02:00:13;;;;;;;98.38;53.75;;;7.10;99.90;;;;;;5095369;28;20470;-69
2021/05/19 02:02:39;;;;;;;97.20;53.75;;;7.00;99.90;;;;;;5095319;28;20370;-69
2021/05/19 02:05:05;;;;;;;89.55;50.80;;;7.00;99.90;;;;;;5095785;28;20024;-69
2021/05/19 02:07:35;;;;;;;93.25;51.25;;;6.90;99.90;;;;;;5095761;28;20433;-69
2021/05/19 02:10:02;;;;;;;95.85;51.55;;;6.90;99.90;;;;;;5095406;28;20417;-69
2021/05/19 02:12:28;;;;;;;93.28;50.47;;;6.80;99.90;;;;;;5093841;28;20020;-67
2021/05/19 02:14:53;;;;;;;93.35;50.45;;;6.80;99.90;;;;;;5094163;28;20031;-69
2021/05/19 02:17:19;;;;;;;84.82;48.30;;;6.70;99.90;;;;;;5095553;28;20381;-68
2021/05/19 02:19:44;;;;;;;87.00;49.15;;;6.70;99.90;;;;;;5095510;28;20472;-68
2021/05/19 02:22:10;;;;;;;79.20;45.25;;;6.60;99.90;;;;;;5095191;28;20020;-68
2021/05/19 02:24:35;;;;;;;83.10;47.00;;;6.60;99.90;;;;;;5095421;28;20028;-68
2021/05/19 02:27:01;;;;;;;82.30;46.22;;;6.50;99.90;;;;;;5093883;28;20028;-67
2021/05/19 02:29:26;;;;;;;95.63;49.65;;;6.50;99.90;;;;;;5095057;28;20475;-68
2021/05/19 02:31:52;;;;;;;98.60;53.33;;;6.40;99.90;;;;;;5093493;28;20024;-68
2021/05/19 02:34:18;;;;;;;103.35;51.55;;;6.50;99.90;;;;;;5094943;28;20034;-69
2021/05/19 02:36:43;;;;;;;92.90;50.25;;;6.40;99.90;;;;;;5094680;28;20104;-68
2021/05/19 02:39:12;;;;;;;93.10;50.53;;;6.40;99.90;;;;;;5094883;28;20028;-68
2021/05/19 02:41:39;;;;;;;106.70;54.38;;;6.40;99.90;;;;;;5094852;28;20081;-68
2021/05/19 02:44:06;;;;;;;101.90;54.25;;;6.40;99.90;;;;;;5094789;28;20359;-69
2021/05/19 02:46:32;;;;;;;101.00;50.63;;;6.40;99.90;;;;;;5094356;28;20068;-68
2021/05/19 02:49:02;;;;;;;102.07;51.63;;;6.30;99.90;;;;;;5094426;28;20086;-68
2021/05/19 02:51:29;;;;;;;105.50;54.17;;;6.30;99.90;;;;;;5094659;28;20479;-68
2021/05/19 02:53:55;;;;;;;113.28;55.47;;;6.20;99.90;;;;;;5094541;28;20032;-68
2021/05/19 02:56:20;;;;;;;107.88;53.65;;;6.20;99.90;;;;;;5094368;28;20077;-68
2021/05/19 02:58:46;;;;;;;126.38;57.72;;;6.30;99.90;;;;;;5094525;28;20032;-68
2021/05/19 03:01:12;;;;;;;149.52;66.03;;;6.20;99.90;;;;;;5094446;28;20032;-68
2021/05/19 03:03:37;;;;;;;165.13;67.75;;;6.30;99.90;;;;;;5094700;28;20043;-68
2021/05/19 03:06:03;;;;;;;139.07;62.03;;;6.40;99.90;;;;;;5094646;28;20102;-68
2021/05/19 03:08:28;;;;;;;136.52;61.88;;;6.40;99.90;;;;;;5094631;28;20028;-68
2021/05/19 03:10:54;;;;;;;131.43;59.88;;;6.40;99.90;;;;;;5094623;28;20055;-68
2021/05/19 03:13:19;;;;;;;120.53;57.13;;;6.30;99.90;;;;;;5094310;28;20055;-68
2021/05/19 03:15:45;;;;;;;132.82;58.67;;;6.30;99.90;;;;;;5094288;28;20024;-68
2021/05/19 03:18:10;;;;;;;122.03;57.78;;;6.20;99.90;;;;;;5094248;28;20027;-68
2021/05/19 03:20:36;;;;;;;123.82;57.05;;;6.20;99.90;;;;;;5094467;28;20473;-68
2021/05/19 03:23:01;;;;;;;121.78;54.80;;;6.20;99.90;;;;;;5094453;28;20028;-68
2021/05/19 03:25:27;;;;;;;129.65;58.85;;;6.20;99.90;;;;;;5094861;28;20404;-69
2021/05/19 03:27:53;;;;;;;142.07;62.85;;;6.20;99.90;;;;;;5094371;28;20101;-68
2021/05/19 03:30:19;;;;;;;133.70;60.58;;;6.20;99.90;;;;;;5094320;28;20550;-68
2021/05/19 03:32:45;;;;;;;130.45;57.90;;;6.20;99.90;;;;;;5094290;28;20523;-68
2021/05/19 03:35:11;;;;;;;129.10;58.35;;;6.20;99.90;;;;;;5094269;28;20028;-68
2021/05/19 03:37:37;;;;;;;135.15;58.65;;;6.20;99.90;;;;;;5093975;28;20034;-68
2021/05/19 03:40:05;;;;;;;130.43;58.50;;;6.20;99.90;;;;;;5092487;28;20055;-68
2021/05/19 03:42:31;;;;;;;134.55;60.28;;;6.10;99.90;;;;;;5093625;28;20047;-68
2021/05/19 03:44:56;;;;;;;130.88;61.13;;;6.20;99.90;;;;;;5093839;28;20405;-68
2021/05/19 03:47:22;;;;;;;125.70;56.72;;;6.20;99.90;;;;;;5094140;28;20106;-68
2021/05/19 03:49:49;;;;;;;127.90;59.05;;;6.30;99.90;;;;;;5093800;28;20021;-68
2021/05/19 03:52:15;;;;;;;135.95;60.55;;;6.30;99.90;;;;;;5093802;28;20031;-69
2021/05/19 03:54:41;;;;;;;131.90;61.22;;;6.30;99.90;;;;;;5093779;28;20028;-69
2021/05/19 03:57:07;;;;;;;138.27;60.00;;;6.40;99.90;;;;;;5093514;28;20037;-69
2021/05/19 03:59:33;;;;;;;139.32;62.40;;;6.40;99.90;;;;;;5093748;28;20461;-68
2021/05/19 04:01:59;;;;;;;135.30;64.05;;;6.50;99.90;;;;;;5093709;28;20030;-69
2021/05/19 04:04:24;;;;;;;128.98;58.58;;;6.60;99.90;;;;;;5093371;28;20106;-69
2021/05/19 04:06:50;;;;;;;123.50;59.45;;;6.60;99.90;;;;;;5094621;28;20032;-68
2021/05/19 04:09:16;;;;;;;128.18;59.70;;;6.70;99.90;;;;;;5097528;28;20025;-69
2021/05/19 04:11:42;;;;;;;127.85;61.10;;;6.80;99.90;;;;;;5097726;28;20024;-69
2021/05/19 04:14:07;;;;;;;126.43;59.25;;;6.90;99.90;;;;;;5097663;28;20031;-67
2021/05/19 04:16:33;;;;;;;136.90;63.88;;;7.10;99.90;;;;;;5097374;28;20028;-68
2021/05/19 04:18:59;;;;;;;122.30;60.47;;;7.30;99.90;;;;;;5097576;28;20063;-68
2021/05/19 04:21:24;;;;;;;114.45;57.90;;;7.40;99.90;;;;;;5097520;28;20036;-69
2021/05/19 04:23:50;;;;;;;113.85;57.63;;;7.40;99.90;;;;;;5097499;28;20107;-69
2021/05/19 04:26:16;;;;;;;104.10;56.67;;;7.60;99.90;;;;;;5097353;28;20072;-69
2021/05/19 04:28:41;;;;;;;116.82;57.97;;;7.70;99.90;;;;;;5097671;28;20415;-68
2021/05/19 04:31:07;;;;;;;83.45;48.45;;;7.80;99.90;;;;;;5097386;28;20025;-69
2021/05/19 04:33:33;;;;;;;86.05;48.20;;;8.20;99.90;;;;;;5097041;28;20381;-68
2021/05/19 04:35:58;;;;;;;84.13;49.42;;;8.20;99.90;;;;;;5097252;28;20028;-69
2021/05/19 04:38:24;;;;;;;73.60;44.65;;;8.60;99.90;;;;;;5097232;28;20106;-69
2021/05/19 04:40:50;;;;;;;67.45;42.03;;;8.80;99.90;;;;;;5097186;28;20073;-68
2021/05/19 04:43:17;;;;;;;69.18;42.28;;;8.80;99.90;;;;;;5097132;28;20024;-69
2021/05/19 04:45:42;;;;;;;72.15;42.35;;;8.60;99.90;;;;;;5096532;28;20431;-69
2021/05/19 04:48:08;;;;;;;54.40;36.42;;;9.10;99.90;;;;;;5095859;28;20031;-69
2021/05/19 04:50:36;;;;;;;51.22;33.67;;;9.80;99.90;;;;;;5096979;28;20020;-68
2021/05/19 04:53:01;;;;;;;47.55;32.20;;;10.30;99.90;;;;;;5096942;28;20028;-69
2021/05/19 04:55:27;;;;;;;49.75;32.67;;;10.40;99.90;;;;;;5096613;28;20028;-69
2021/05/19 04:57:52;;;;;;;48.00;32.50;;;10.20;99.90;;;;;;5097166;28;20024;-69
2021/05/19 05:00:18;;;;;;;47.05;31.70;;;10.40;99.90;;;;;;5097099;28;20484;-69
2021/05/19 05:02:44;;;;;;;47.53;31.45;;;10.70;99.90;;;;;;5097045;28;20032;-69
2021/05/19 05:05:10;;;;;;;45.97;31.90;;;10.60;99.90;;;;;;5096659;28;20024;-69
2021/05/19 05:07:36;;;;;;;45.20;31.67;;;10.30;99.90;;;;;;5096976;28;20103;-68
2021/05/19 05:10:05;;;;;;;48.70;35.58;;;10.10;99.90;;;;;;5096902;28;20024;-69
2021/05/19 05:12:31;;;;;;;52.38;36.55;;;9.90;99.90;;;;;;5096816;28;20024;-69
2021/05/19 05:14:57;;;;;;;48.97;35.30;;;9.80;99.90;;;;;;5096824;28;20047;-69
2021/05/19 05:17:22;;;;;;;52.88;36.08;;;9.90;99.90;;;;;;5096298;28;20028;-69
2021/05/19 05:19:48;;;;;;;54.83;36.63;;;10.10;99.90;;;;;;5096444;28;20350;-68
2021/05/19 05:22:13;;;;;;;54.03;36.47;;;10.20;99.90;;;;;;5096634;28;20338;-68
2021/05/19 05:24:39;;;;;;;53.22;34.75;;;10.50;99.90;;;;;;5096455;28;20088;-68
2021/05/19 05:27:05;;;;;;;59.58;37.97;;;11.10;99.90;;;;;;5096199;28;20411;-69
2021/05/19 05:29:31;;;;;;;50.30;36.08;;;11.70;99.90;;;;;;5096217;28;20468;-69
2021/05/19 05:31:57;;;;;;;52.88;36.97;;;12.10;99.90;;;;;;5096486;28;20058;-68
2021/05/19 05:34:23;;;;;;;49.42;34.70;;;12.70;99.90;;;;;;5096131;28;20480;-68
2021/05/19 05:36:48;;;;;;;48.30;34.75;;;13.10;99.90;;;;;;5096113;28;20024;-68
2021/05/19 05:39:14;;;;;;;48.65;35.10;;;13.50;99.90;;;;;;5096087;28;20035;-69
2021/05/19 05:41:39;;;;;;;46.55;34.13;;;13.90;99.90;;;;;;5096263;28;20020;-69
2021/05/19 05:44:06;;;;;;;47.22;34.67;;;14.20;99.90;;;;;;5096232;28;20412;-69
2021/05/19 05:46:31;;;;;;;48.72;35.03;;;14.40;99.90;;;;;;5094250;28;20133;-69
2021/05/19 05:48:59;;;;;;;45.17;34.70;;;14.30;99.90;;;;;;5096132;28;20019;-69
2021/05/19 05:51:25;;;;;;;51.78;35.55;;;13.40;99.90;;;;;;5096062;28;20023;-69
2021/05/19 05:53:51;;;;;;;49.60;36.65;;;13.00;99.90;;;;;;5096009;28;20065;-69
2021/05/19 05:56:17;;;;;;;50.35;36.95;;;12.70;99.90;;;;;;5095653;28;20070;-69
2021/05/19 05:58:43;;;;;;;51.72;35.42;;;12.60;99.90;;;;;;5095956;28;20539;-68
2021/05/19 06:01:09;;;;;;;50.10;36.25;;;12.70;99.90;;;;;;5095888;28;20024;-68
2021/05/19 06:03:35;;;;;;;57.22;38.72;;;12.50;99.90;;;;;;5095823;28;20028;-69
2021/05/19 06:06:01;;;;;;;57.95;39.42;;;12.10;99.90;;;;;;5095438;28;20035;-69
2021/05/19 06:08:26;;;;;;;61.40;41.45;;;11.90;99.90;;;;;;5095451;28;20478;-68
2021/05/19 06:10:52;;;;;;;62.55;40.90;;;11.80;99.90;;;;;;5095341;28;20020;-68
2021/05/19 06:13:18;;;;;;;64.68;40.88;;;11.70;99.90;;;;;;5095371;28;20420;-68
2021/05/19 06:15:43;;;;;;;60.10;39.90;;;11.70;99.90;;;;;;5095282;28;20028;-69
2021/05/19 06:18:09;;;;;;;62.55;39.80;;;12.10;99.90;;;;;;5094858;28;20080;-68
2021/05/19 06:20:34;;;;;;;59.55;39.30;;;12.00;99.90;;;;;;5095492;28;20028;-69
2021/05/19 06:23:00;;;;;;;57.25;37.72;;;11.80;99.90;;;;;;5095650;28;20024;-69
2021/05/19 06:25:26;;;;;;;55.47;36.00;;;12.60;99.90;;;;;;5095255;28;20024;-69
2021/05/19 06:27:52;;;;;;;50.67;34.85;;;13.20;99.90;;;;;;5094683;28;20023;-69
2021/05/19 06:30:18;;;;;;;52.08;35.10;;;13.80;99.90;;;;;;5094351;28;20020;-69
2021/05/19 06:32:43;;;;;;;52.47;35.50;;;14.60;99.90;;;;;;5094891;28;20123;-69
2021/05/19 06:35:09;;;;;;;47.95;33.25;;;14.60;99.90;;;;;;5095025;28;20078;-69
2021/05/19 06:37:35;;;;;;;46.70;32.95;;;15.20;99.90;;;;;;5094983;28;20050;-69
2021/05/19 06:40:00;;;;;;;46.00;33.03;;;14.40;99.90;;;;;;5094983;28;20028;-69
2021/05/19 06:42:26;;;;;;;44.42;31.75;;;14.40;99.90;;;;;;5094657;28;20398;-69
2021/05/19 06:44:52;;;;;;;44.40;30.17;;;15.00;99.90;;;;;;5086217;28;20025;-69
2021/05/19 06:47:17;;;;;;;42.28;28.48;;;15.60;99.90;;;;;;5082950;28;20543;-69
2021/05/19 06:49:43;;;;;;;37.53;27.98;;;15.60;99.90;;;;;;5086632;28;20060;-70
2021/05/19 06:52:09;;;;;;;39.25;28.70;;;15.30;99.90;;;;;;5087104;28;20115;-69
2021/05/19 06:54:34;;;;;;;43.75;30.08;;;14.80;99.90;;;;;;5094249;28;20023;-69
2021/05/19 06:57:00;;;;;;;40.15;29.60;;;14.80;99.90;;;;;;5084339;28;20370;-69
2021/05/19 06:59:25;;;;;;;40.65;27.50;;;15.60;99.90;;;;;;5072864;28;20069;-69
2021/05/19 07:01:51;;;;;;;38.15;26.95;;;16.00;99.90;;;;;;5074933;28;20051;-69
2021/05/19 07:04:18;;;;;;;36.53;26.00;;;16.20;99.90;;;;;;5074936;28;20461;-69
2021/05/19 07:06:44;;;;;;;36.25;24.90;;;15.90;99.90;;;;;;5081704;28;20032;-69
2021/05/19 07:09:09;;;;;;;39.55;27.02;;;15.40;99.90;;;;;;5088078;28;20031;-69
2021/05/19 07:11:35;;;;;;;37.05;25.95;;;14.50;99.90;;;;;;5090057;28;20016;-69
2021/05/19 07:14:02;;;;;;;35.67;26.23;;;14.40;99.90;;;;;;5077206;28;20024;-69
2021/05/19 07:16:27;;;;;;;38.03;26.05;;;14.60;99.90;;;;;;5078839;28;20119;-69
2021/05/19 07:18:55;;;;;;;37.15;26.10;;;14.50;99.90;;;;;;5073612;28;20052;-69
2021/05/19 07:21:22;;;;;;;37.92;25.63;;;14.20;99.90;;;;;;5074540;28;20381;-69
2021/05/19 07:23:48;;;;;;;32.95;23.60;;;14.40;99.90;;;;;;5073305;28;20056;-69
2021/05/19 07:26:13;;;;;;;36.13;24.77;;;15.40;99.90;;;;;;5084250;28;20020;-69
2021/05/19 07:28:39;;;;;;;36.47;24.63;;;15.50;99.90;;;;;;5091628;28;20020;-69
2021/05/19 07:31:06;;;;;;;33.10;23.60;;;15.30;99.90;;;;;;5082087;28;20063;-69
2021/05/19 07:33:32;;;;;;;28.92;19.35;;;14.90;99.90;;;;;;5071790;28;20443;-69
2021/05/19 07:35:57;;;;;;;28.23;18.48;;;14.40;99.90;;;;;;5073809;28;20025;-69
2021/05/19 07:38:23;;;;;;;27.10;17.55;;;14.20;99.90;;;;;;5073207;28;20024;-69
2021/05/19 07:40:49;;;;;;;27.83;16.42;;;14.30;99.90;;;;;;5083004;28;20127;-69
2021/05/19 07:43:15;;;;;;;26.92;17.83;;;14.10;99.90;;;;;;5073195;28;20099;-69
2021/05/19 07:45:41;;;;;;;29.48;17.33;;;13.90;99.90;;;;;;5073577;28;20505;-69
2021/05/19 07:48:07;;;;;;;30.30;17.35;;;14.00;99.90;;;;;;5072746;28;20420;-69
2021/05/19 07:50:33;;;;;;;27.17;16.65;;;14.00;99.90;;;;;;5077166;28;20032;-69
2021/05/19 07:52:58;;;;;;;27.85;18.55;;;14.00;99.90;;;;;;5091717;28;20024;-69
2021/05/19 07:55:40;;;;;;;26.02;18.70;;;14.00;99.90;;;;;;5090312;28;20068;-69
2021/05/19 07:58:13;;;;;;;27.05;16.80;;;14.00;99.90;;;;;;5073754;28;20381;-69
2021/05/19 08:00:52;;;;;;;27.52;17.42;;;14.10;99.90;;;;;;5092743;28;20477;-69
2021/05/19 08:03:17;;;;;;;30.17;17.55;;;14.00;99.90;;;;;;5083694;28;20398;-69
2021/05/19 08:05:44;;;;;;;33.10;16.77;;;14.10;99.90;;;;;;5089269;28;20282;-69
2021/05/19 08:08:10;;;;;;;29.02;15.73;;;14.10;99.90;;;;;;5092666;28;20020;-69
2021/05/19 08:10:37;;;;;;;20.02;13.48;;;14.60;99.90;;;;;;5071416;28;20356;-69
2021/05/19 08:13:03;;;;;;;20.25;12.55;;;14.80;99.90;;;;;;5072678;28;20474;-69
2021/05/19 08:15:28;;;;;;;23.30;13.73;;;14.80;99.90;;;;;;5087116;28;20031;-69
2021/05/19 08:17:54;;;;;;;21.95;13.30;;;15.00;99.90;;;;;;5092994;28;20032;-69
2021/05/19 08:20:21;;;;;;;20.13;13.38;;;15.30;99.90;;;;;;5074365;28;20025;-69
2021/05/19 08:22:48;;;;;;;20.33;12.40;;;15.70;99.90;;;;;;5072504;28;20494;-69
2021/05/19 08:25:14;;;;;;;18.58;10.40;;;16.00;99.90;;;;;;5077200;28;20166;-69
2021/05/19 08:27:40;;;;;;;16.77;8.52;;;16.00;99.90;;;;;;5080499;28;20286;-69
2021/05/19 08:30:09;;;;;;;20.98;8.80;;;15.60;99.90;;;;;;5088603;28;20099;-69
2021/05/19 08:32:34;;;;;;;18.80;8.93;;;15.50;99.90;;;;;;5085688;28;20477;-69
2021/05/19 08:35:00;;;;;;;11.88;8.88;;;15.30;99.90;;;;;;5092928;28;20023;-69
2021/05/19 08:37:25;;;;;;;17.08;10.27;;;15.30;99.90;;;;;;5091080;28;20097;-69
2021/05/19 08:39:51;;;;;;;18.45;11.45;;;15.30;99.90;;;;;;5092716;28;20016;-69
2021/05/19 08:42:16;;;;;;;18.13;11.63;;;15.10;99.90;;;;;;5091627;28;20089;-69
2021/05/19 08:44:43;;;;;;;21.90;12.77;;;15.20;99.90;;;;;;5091719;28;20068;-69
2021/05/19 08:47:11;;;;;;;14.63;8.88;;;15.60;99.90;;;;;;5091222;28;20048;-69
2021/05/19 08:49:39;;;;;;;16.48;10.10;;;16.80;99.90;;;;;;5085480;28;20119;-69
2021/05/19 08:52:05;;;;;;;14.15;9.55;;;16.90;99.90;;;;;;5070238;28;20019;-69
2021/05/19 08:54:30;;;;;;;22.00;11.05;;;16.70;99.90;;;;;;5076624;28;20024;-69
2021/05/19 08:56:56;;;;;;;16.13;9.88;;;16.20;99.90;;;;;;5078558;28;20031;-69
2021/05/19 08:59:22;;;;;;;16.35;9.77;;;15.80;99.90;;;;;;5095624;28;20051;-69
2021/05/19 09:01:49;;;;;;;13.80;8.35;;;15.30;99.90;;;;;;5094809;28;20066;-69
2021/05/19 09:04:19;;;;;;;16.50;8.13;;;14.90;99.90;;;;;;5094737;28;20089;-69
2021/05/19 09:06:51;;;;;;;15.40;7.95;;;14.60;99.90;;;;;;5094793;28;20035;-69
2021/05/19 09:09:28;;;;;;;13.45;8.00;;;14.30;99.90;;;;;;5074715;28;20115;-69
2021/05/19 09:12:15;;;;;;;17.30;8.40;;;14.60;99.90;;;;;;5076517;28;20024;-69
2021/05/19 09:14:43;;;;;;;12.85;7.35;;;14.90;99.90;;;;;;5074772;28;20021;-69
2021/05/19 09:17:18;;;;;;;14.30;6.13;;;16.20;99.90;;;;;;5076884;28;20029;-69
2021/05/19 09:19:44;;;;;;;11.27;5.03;;;17.70;99.90;;;;;;5095319;28;20020;-70
2021/05/19 09:22:24;;;;;;;10.38;4.10;;;19.50;99.90;;;;;;5094168;28;20039;-70
2021/05/19 09:24:51;;;;;;;9.98;4.15;;;19.60;99.90;;;;;;5075718;28;20021;-70
2021/05/19 09:27:17;;;;;;;7.95;4.13;;;19.60;99.90;;;;;;5078232;28;20020;-70
2021/05/19 09:29:46;;;;;;;15.30;4.25;;;18.30;99.90;;;;;;5085355;28;20427;-70
2021/05/19 09:32:13;;;;;;;13.18;4.13;;;17.20;99.90;;;;;;5092169;28;20023;-70
2021/05/19 09:34:45;;;;;;;11.13;3.25;;;17.30;99.90;;;;;;5089686;28;20107;-69
2021/05/19 09:37:16;;;;;;;8.45;2.65;;;17.10;99.90;;;;;;5095541;28;20481;-70
2021/05/19 09:40:07;;;;;;;8.30;2.80;;;17.20;99.90;;;;;;5084404;28;20119;-70
2021/05/19 09:42:41;;;;;;;10.00;3.35;;;17.20;99.90;;;;;;5094390;28;20057;-69
2021/05/19 09:45:30;;;;;;;4.85;2.40;;;17.00;99.90;;;;;;5093287;28;20036;-70
2021/05/19 09:47:57;;;;;;;9.32;2.35;;;17.00;99.90;;;;;;5094438;28;20028;-70
2021/05/19 09:50:40;;;;;;;14.13;2.60;;;16.70;99.90;;;;;;5091473;28;20020;-70
2021/05/19 09:53:09;;;;;;;7.88;2.90;;;16.70;99.90;;;;;;5080369;28;20501;-70
2021/05/19 09:55:38;;;;;;;5.35;1.90;;;16.70;99.90;;;;;;5095566;28;20081;-69
2021/05/19 09:58:04;;;;;;;5.63;2.33;;;17.00;99.90;;;;;;5079251;28;20025;-70
2021/05/19 10:00:30;;;;;;;7.75;2.20;;;16.90;99.90;;;;;;5075212;28;20052;-70
2021/05/19 10:02:56;;;;;;;5.65;2.10;;;17.90;99.90;;;;;;5074849;28;20020;-70
2021/05/19 10:05:32;;;;;;;6.05;2.55;;;18.80;99.90;;;;;;5074155;28;20024;-70
2021/05/19 10:07:57;;;;;;;6.95;2.53;;;17.70;99.90;;;;;;5087841;28;20427;-70
2021/05/19 10:10:24;;;;;;;11.23;2.85;;;17.30;99.90;;;;;;5092890;28;20016;-70
2021/05/19 10:12:50;;;;;;;8.90;2.53;;;17.10;99.90;;;;;;5075921;28;20382;-70
2021/05/19 10:15:22;;;;;;;5.13;2.17;;;17.20;99.90;;;;;;5076999;28;20024;-70
2021/05/19 10:17:51;;;;;;;4.85;1.92;;;17.90;99.90;;;;;;5094690;28;20110;-70
2021/05/19 10:20:21;;;;;;;6.35;2.25;;;19.00;99.90;;;;;;5081904;28;20478;-70
2021/05/19 10:22:49;;;;;;;7.28;2.17;;;19.80;99.90;;;;;;5083964;28;20020;-70
2021/05/19 10:25:34;;;;;;;4.88;2.10;;;20.40;99.90;;;;;;5087959;28;20034;-70
2021/05/19 10:28:02;;;;;;;8.85;2.42;;;20.60;99.80;;;;;;5094758;28;20048;-70
2021/05/19 10:30:46;;;;;;;3.22;2.28;;;20.30;98.30;;;;;;5094175;28;20425;-70
2021/05/19 10:41:50;;;;;;;7.18;2.65;;;17.30;99.90;;;;;;5109184;27;20355;-70
2021/05/19 10:44:19;;;;;;;6.43;3.10;;;16.60;99.90;;;;;;5090761;28;20020;-67
2021/05/19 10:46:53;;;;;;;5.88;3.33;;;16.20;99.90;;;;;;5089358;28;20012;-70
2021/05/19 10:49:19;;;;;;;7.78;2.20;;;16.10;99.90;;;;;;5089447;28;20477;-70
2021/05/19 10:52:05;;;;;;;9.88;2.20;;;15.90;99.90;;;;;;5089460;28;20385;-70
2021/05/19 10:57:38;;;;;;;4.85;2.08;;;16.20;99.90;;;;;;5088487;28;20033;-70
2021/05/19 11:00:23;;;;;;;7.60;2.17;;;17.20;99.90;;;;;;5088246;28;20020;-70
2021/05/19 11:08:36;;;;;;;6.88;2.83;;;18.00;99.90;;;;;;5110379;27;20408;-70
2021/05/19 11:11:23;;;;;;;10.73;3.63;;;18.00;99.90;;;;;;5099091;28;20021;-68
2021/05/19 11:14:14;;;;;;;7.05;2.92;;;17.30;99.90;;;;;;5090595;28;20166;-68
2021/05/19 11:16:43;;;;;;;9.45;3.30;;;17.10;99.90;;;;;;5105459;28;20039;-68
2021/05/19 11:19:12;;;;;;;4.97;3.20;;;16.90;99.90;;;;;;5109054;28;20051;-70
2021/05/19 11:21:38;;;;;;;8.30;2.60;;;16.40;99.90;;;;;;5108386;28;20438;-70
2021/05/19 11:24:09;;;;;;;5.22;2.17;;;15.60;99.90;;;;;;5110574;28;20023;-70
2021/05/19 11:26:44;;;;;;;3.92;2.10;;;15.20;99.90;;;;;;5104107;28;20031;-70
2021/05/19 11:29:12;;;;;;;4.63;1.75;;;15.10;99.90;;;;;;5092295;28;20036;-68
2021/05/19 11:31:43;;;;;;;4.50;1.75;;;15.20;99.90;;;;;;5090145;28;20020;-70
2021/05/19 11:34:10;;;;;;;6.65;1.95;;;15.60;99.90;;;;;;5100898;28;20030;-70
2021/05/19 11:36:41;;;;;;;7.25;2.00;;;15.90;99.90;;;;;;5109688;28;20077;-70
2021/05/19 11:42:19;;;;;;;4.53;1.45;;;17.10;99.90;;;;;;5116451;27;20408;-68
2021/05/19 11:44:55;;;;;;;4.93;1.70;;;17.60;99.90;;;;;;5109584;28;20028;-70
2021/05/19 11:47:38;;;;;;;4.82;1.60;;;17.60;99.90;;;;;;5107387;28;20058;-69
2021/05/19 11:50:27;;;;;;;1.85;1.27;;;17.60;99.90;;;;;;5108428;28;20473;-71
2021/05/19 11:53:03;;;;;;;7.38;1.70;;;17.70;99.90;;;;;;5108685;28;20046;-70
2021/05/19 11:55:50;;;;;;;4.70;1.08;;;17.80;99.90;;;;;;5108519;28;20081;-70
2021/05/19 11:58:24;;;;;;;5.68;1.40;;;17.90;99.90;;;;;;5108332;28;20028;-71
2021/05/19 12:00:53;;;;;;;4.05;1.10;;;18.10;99.90;;;;;;5108776;28;20028;-70
2021/05/19 12:03:21;;;;;;;3.47;1.13;;;18.00;99.90;;;;;;5109573;28;20115;-70
2021/05/19 12:05:55;;;;;;;6.13;1.50;;;17.70;99.90;;;;;;5109786;28;20023;-70
2021/05/19 12:08:24;;;;;;;4.03;1.27;;;17.70;99.90;;;;;;5108936;28;20073;-70
2021/05/19 12:14:03;;;;;;;4.37;1.27;;;17.90;99.90;;;;;;5109179;27;20397;-72
2021/05/19 12:16:32;;;;;;;3.25;0.98;;;17.80;99.90;;;;;;5097408;28;20028;-71
2021/05/19 12:19:01;;;;;;;5.00;1.33;;;17.70;99.90;;;;;;5090464;28;20108;-72
2021/05/19 12:21:27;;;;;;;6.03;1.42;;;17.80;99.90;;;;;;5088439;28;20020;-70
2021/05/19 12:23:53;;;;;;;6.20;1.60;;;17.70;99.90;;;;;;5102179;28;20066;-70
2021/05/19 12:26:19;;;;;;;4.95;1.50;;;17.80;99.90;;;;;;5103978;28;20041;-70
2021/05/19 12:28:46;;;;;;;4.18;1.63;;;17.70;99.90;;;;;;5110449;28;20023;-72
2021/05/19 12:31:28;;;;;;;7.57;1.98;;;17.70;99.90;;;;;;5110385;28;20384;-72
2021/05/19 12:33:54;;;;;;;7.38;2.00;;;17.40;99.90;;;;;;5110106;28;20024;-72
2021/05/19 12:36:37;;;;;;;3.63;1.60;;;17.30;99.90;;;;;;5109927;28;20069;-72
2021/05/19 12:39:04;;;;;;;;;;;17.30;99.90;;;;;;5101755;28;20386;-72
2021/05/19 12:41:49;;;;;;;7.30;1.60;;;17.60;99.90;;;;;;5071213;28;19915;-72
2021/05/19 12:44:18;;;;;;;7.70;2.00;;;17.80;99.90;;;;;;5077695;28;20107;-72
2021/05/19 12:47:00;;;;;;;4.47;1.73;;;18.50;99.90;;;;;;5089358;28;20059;-72
2021/05/19 12:49:27;;;;;;;9.73;2.15;;;18.50;99.90;;;;;;5073194;28;20024;-72
2021/05/19 12:51:55;;;;;;;6.82;1.80;;;18.30;99.90;;;;;;5069532;28;20028;-72
2021/05/19 12:54:28;;;;;;;7.07;2.13;;;17.90;99.90;;;;;;5077398;28;20021;-72
2021/05/19 12:57:12;;;;;;;9.13;1.77;;;17.40;99.90;;;;;;5084331;28;20028;-72
2021/05/19 13:02:44;;;;;;;5.68;2.10;;;17.30;99.90;;;;;;5089419;28;20414;-72
2021/05/19 13:05:27;;;;;;;8.55;2.83;;;17.50;99.90;;;;;;5090869;28;20424;-72
2021/05/19 13:07:53;;;;;;;8.30;3.30;;;17.80;99.90;;;;;;5087225;28;20027;-72
2021/05/19 13:10:29;;;;;;;8.00;3.45;;;18.30;99.90;;;;;;5080854;28;20416;-72